Time;durP1;ratioP1;P1;durP2;ratioP2;P2;SDS_P1;SDS_P2;PMS_P1;PMS_P2;Temp;Humidity;BMP_temperature;BMP_pressure;BME280_temperature;BME280_humidity;BME280_pressure;Samples;Min_cycle;Max_cycle;Signal;HPM_P1;HPM_P2
2021/12/18 00:03:13;;;;;;;17.23;15.37;;;;;;;7.98;59.34;99983.16;8327673;22;20317;-89
2021/12/18 00:07:16;;;;;;;18.53;15.90;;;;;;;8.05;59.29;99979.69;8283933;22;20543;-77
2021/12/18 00:11:19;;;;;;;17.80;15.63;;;;;;;8.02;59.12;99962.50;8249993;28;20234;-79
2021/12/18 00:15:24;;;;;;;16.53;14.83;;;;;;;8.08;59.24;99961.63;8249825;28;20240;-80
2021/12/18 00:19:28;;;;;;;17.07;15.37;;;;;;;8.06;59.13;99963.34;8249714;28;20233;-80
2021/12/18 00:23:32;;;;;;;18.53;15.97;;;;;;;8.11;59.19;99963.31;8249918;28;20273;-80
2021/12/18 00:27:35;;;;;;;23.53;19.13;;;;;;;8.05;59.21;99953.88;8250192;28;20230;-80
2021/12/18 00:31:38;;;;;;;20.67;17.73;;;;;;;8.03;59.13;99953.91;8249274;28;20237;-80
2021/12/18 00:35:42;;;;;;;17.67;15.47;;;;;;;8.15;58.68;99955.59;8249630;28;20433;-80
2021/12/18 00:39:54;;;;;;;18.17;15.40;;;;;;;8.06;59.25;99960.78;8249440;28;20230;-80
2021/12/18 00:44:03;;;;;;;15.40;13.80;;;;;;;8.13;58.85;99970.22;8249354;28;20261;-80
2021/12/18 00:48:06;;;;;;;16.37;14.70;;;;;;;8.15;59.13;99973.66;8249114;28;20257;-80
2021/12/18 00:52:12;;;;;;;17.07;15.27;;;;;;;8.11;59.16;99966.78;8254420;28;20238;-80
2021/12/18 00:56:15;;;;;;;16.20;14.60;;;;;;;8.10;59.06;99975.38;8254402;28;20234;-79
2021/12/18 01:00:23;;;;;;;16.17;14.57;;;;;;;8.19;58.79;99975.38;8254487;28;20234;-79
2021/12/18 01:04:26;;;;;;;16.33;14.73;;;;;;;8.11;58.86;99984.84;8254157;28;20242;-80
2021/12/18 01:08:31;;;;;;;16.40;14.70;;;;;;;8.18;58.76;99988.28;8254214;28;20242;-79
2021/12/18 01:12:39;;;;;;;16.00;14.30;;;;;;;8.16;59.41;99990.00;8254351;28;20237;-79
2021/12/18 01:16:49;;;;;;;15.87;14.23;;;;;;;8.17;59.30;99978.81;8254089;28;20244;-80
2021/12/18 01:25:14;;;;;;;17.13;15.33;;;;;;;8.10;58.96;99988.28;8245572;28;20421;-80
2021/12/18 01:29:17;;;;;;;16.93;15.20;;;;;;;8.13;59.21;99987.41;8254037;28;20470;-79
2021/12/18 01:33:21;;;;;;;16.87;15.17;;;;;;;8.17;59.00;99994.31;8253755;28;20234;-80
2021/12/18 01:37:26;;;;;;;18.03;15.80;;;;;;;8.09;59.38;100006.34;8253826;28;20234;-80
2021/12/18 01:41:37;;;;;;;16.13;14.47;;;;;;;8.17;59.55;100000.31;8253628;28;20525;-80
2021/12/18 01:45:49;;;;;;;18.00;16.07;;;;;;;8.15;59.39;100017.53;8255272;28;20215;-82
2021/12/18 01:54:14;;;;;;;17.77;15.97;;;;;;;8.16;59.05;100010.66;8244935;28;20244;-83
2021/12/18 01:58:22;;;;;;;16.33;14.63;;;;;;;8.01;59.07;99998.63;8253192;28;20241;-81
2021/12/18 02:02:25;;;;;;;16.30;14.70;;;;;;;8.10;59.55;99997.75;8252790;28;20245;-81
2021/12/18 02:06:28;;;;;;;15.10;13.60;;;;;;;8.16;58.94;99998.59;8252337;28;20245;-80
2021/12/18 02:10:45;;;;;;;15.80;14.30;;;;;;;8.13;59.09;100005.47;8252961;28;20242;-81
2021/12/18 02:23:32;;;;;;;16.70;15.00;;;;;;;8.03;59.54;99994.31;8246554;28;20235;-79
2021/12/18 02:27:35;;;;;;;16.30;14.70;;;;;;;8.11;59.52;99991.72;8252039;28;20524;-79
2021/12/18 02:31:38;;;;;;;16.13;14.33;;;;;;;8.15;59.35;99978.81;8252090;28;20238;-79
2021/12/18 02:35:46;;;;;;;17.03;15.33;;;;;;;8.18;59.21;99976.22;8251919;28;20257;-79
2021/12/18 02:44:09;;;;;;;16.17;14.53;;;;;;;8.15;58.92;99972.81;8250968;28;20242;-79
2021/12/18 02:48:12;;;;;;;17.93;16.03;;;;;;;8.11;59.46;99976.22;8248325;28;20246;-78
2021/12/18 02:52:15;;;;;;;16.80;15.10;;;;;;;8.14;59.32;99971.94;8219378;28;20242;-78
2021/12/18 02:56:23;;;;;;;17.87;16.00;;;;;;;8.25;59.21;99956.41;8219163;28;20249;-78
2021/12/18 03:00:27;;;;;;;18.20;16.30;;;;;;;8.17;58.99;99953.88;8219054;28;20242;-78
2021/12/18 03:04:34;;;;;;;17.77;15.53;;;;;;;8.13;59.60;99951.28;8218749;28;20247;-78
2021/12/18 03:08:46;;;;;;;17.80;15.97;;;;;;;8.11;59.53;99955.59;8219185;28;20235;-78
2021/12/18 03:26:04;;;;;;;16.20;14.50;;;;;;;8.26;59.21;99949.53;8218667;28;20540;-78
2021/12/18 03:30:09;;;;;;;16.87;15.07;;;;;;;8.26;59.47;99958.13;8218595;28;20246;-78
2021/12/18 03:34:14;;;;;;;16.73;15.03;;;;;;;8.14;59.38;99953.88;8218297;28;20238;-78
2021/12/18 03:38:17;;;;;;;15.60;14.00;;;;;;;8.15;59.40;99953.00;8218906;28;20239;-77
2021/12/18 03:42:20;;;;;;;15.93;14.33;;;;;;;8.14;59.56;99943.53;8218722;28;20556;-78
2021/12/18 03:46:24;;;;;;;16.33;14.53;;;;;;;8.14;59.20;99947.84;8218085;28;20262;-78
2021/12/18 03:50:27;;;;;;;15.57;14.00;;;;;;;8.19;59.61;99934.06;8238984;28;20238;-79
2021/12/18 03:54:30;;;;;;;16.10;14.50;;;;;;;8.09;59.70;99945.28;8250124;28;20426;-79
2021/12/18 03:58:33;;;;;;;15.67;14.17;;;;;;;8.14;59.91;99934.94;8250107;28;20230;-79
2021/12/18 04:02:37;;;;;;;15.87;14.20;;;;;;;8.25;59.30;99935.78;8249875;28;20230;-78
2021/12/18 04:06:42;;;;;;;14.80;13.20;;;;;;;8.19;59.09;99939.22;8249777;28;20234;-78
2021/12/18 04:10:45;;;;;;;15.20;13.70;;;;;;;8.25;59.30;99946.09;8249560;28;20238;-78
2021/12/18 04:14:48;;;;;;;13.73;12.37;;;;;;;8.18;59.22;99952.13;8249653;28;20249;-80
2021/12/18 04:18:52;;;;;;;12.77;10.90;;;;;;;8.21;59.07;99946.97;8249928;28;20646;-79
2021/12/18 04:22:56;;;;;;;11.33;10.23;;;;;;;8.22;59.14;99953.84;8250495;28;20245;-79
2021/12/18 04:26:59;;;;;;;12.57;10.13;;;;;;;8.17;58.90;99945.28;8255730;28;20238;-79
2021/12/18 04:31:02;;;;;;;10.80;9.70;;;;;;;8.20;58.82;99946.09;8255927;28;20245;-79
2021/12/18 04:35:08;;;;;;;11.07;10.07;;;;;;;8.22;58.89;99946.09;8255538;28;20460;-79
2021/12/18 04:39:11;;;;;;;11.50;10.30;;;;;;;7.99;59.14;99953.91;8255867;28;20555;-79
2021/12/18 04:43:14;;;;;;;11.40;10.20;;;;;;;8.06;59.10;99954.75;8255087;28;20415;-79
2021/12/18 04:47:17;;;;;;;10.23;9.23;;;;;;;8.10;59.04;99956.47;8255561;28;20431;-79
2021/12/18 04:51:21;;;;;;;10.50;9.50;;;;;;;8.00;59.07;99945.31;8254947;28;20234;-79
2021/12/18 04:55:24;;;;;;;11.80;10.60;;;;;;;8.06;59.00;99954.75;8255088;28;20238;-79
2021/12/18 04:59:27;;;;;;;12.30;9.93;;;;;;;8.13;58.69;99948.69;8255388;28;20245;-80
2021/12/18 05:03:30;;;;;;;10.30;9.30;;;;;;;7.91;59.03;99943.59;8255145;28;20251;-78
2021/12/18 05:07:35;;;;;;;9.47;8.57;;;;;;;8.03;58.65;99938.44;8254518;28;20234;-79
2021/12/18 05:11:38;;;;;;;10.30;9.30;;;;;;;8.13;59.15;99949.59;8255061;28;20234;-79
2021/12/18 05:15:41;;;;;;;9.90;8.90;;;;;;;8.11;58.69;99947.84;8254803;28;20238;-79
2021/12/18 05:19:44;;;;;;;11.17;9.97;;;;;;;8.15;58.75;99947.84;8254661;28;20230;-79
2021/12/18 05:23:49;;;;;;;10.80;9.70;;;;;;;8.14;58.79;99950.44;8253849;28;20230;-80
2021/12/18 05:27:52;;;;;;;12.03;10.83;;;;;;;7.95;59.25;99941.88;8253655;28;20431;-79
2021/12/18 05:31:55;;;;;;;13.43;11.53;;;;;;;7.79;59.38;99949.66;8253852;28;20245;-79
2021/12/18 05:35:58;;;;;;;12.33;11.13;;;;;;;7.84;59.03;99936.72;8252934;28;20238;-78
2021/12/18 05:40:03;;;;;;;14.10;12.50;;;;;;;7.77;59.69;99942.78;8253658;28;20257;-79
2021/12/18 05:44:07;;;;;;;13.07;11.77;;;;;;;7.86;58.87;99952.22;8253561;28;20425;-79
2021/12/18 05:48:09;;;;;;;13.43;12.00;;;;;;;7.95;59.04;99947.88;8253211;28;20265;-78
2021/12/18 05:52:12;;;;;;;13.37;11.97;;;;;;;7.89;59.62;99955.66;8252955;28;20525;-78
2021/12/18 05:56:17;;;;;;;12.90;11.60;;;;;;;7.96;59.29;99948.75;8253097;28;20245;-78
2021/12/18 06:00:20;;;;;;;13.27;11.90;;;;;;;7.97;59.44;99964.22;8252953;28;20234;-78
2021/12/18 06:04:23;;;;;;;12.87;11.57;;;;;;;8.09;58.82;99959.91;8252980;28;20509;-79
2021/12/18 06:08:27;;;;;;;12.27;11.07;;;;;;;8.09;58.92;99959.91;8252520;28;20296;-79
2021/12/18 06:12:31;;;;;;;12.67;11.37;;;;;;;8.12;58.83;99963.34;8252419;28;20238;-79
2021/12/18 06:16:34;;;;;;;11.90;10.70;;;;;;;8.14;58.90;99968.50;8253066;28;20237;-79
2021/12/18 06:20:37;;;;;;;11.70;10.50;;;;;;;8.08;58.60;99971.94;8252182;28;20241;-77
2021/12/18 06:24:40;;;;;;;12.53;11.20;;;;;;;8.07;58.85;99972.78;8252305;28;20241;-77
2021/12/18 06:28:45;;;;;;;12.67;11.47;;;;;;;8.03;59.01;99981.41;8251956;28;20542;-77
2021/12/18 06:33:05;;;;;;;11.73;10.63;;;;;;;7.95;58.74;99968.53;8252337;28;20516;-77
2021/12/18 06:37:10;;;;;;;11.70;10.60;;;;;;;7.98;58.87;99971.13;8252364;28;20237;-77
2021/12/18 06:41:13;;;;;;;12.57;10.83;;;;;;;8.01;58.75;99971.13;8251419;28;20229;-78
2021/12/18 06:45:18;;;;;;;11.23;10.10;;;;;;;8.14;58.57;99977.09;8251661;28;20237;-78
2021/12/18 06:49:21;;;;;;;11.00;9.90;;;;;;;7.95;58.68;99965.09;8250839;28;20415;-78
2021/12/18 06:53:23;;;;;;;10.80;9.70;;;;;;;7.98;58.70;99967.69;8251054;28;20249;-80
2021/12/18 06:57:26;;;;;;;10.57;9.47;;;;;;;8.05;58.36;99976.25;8251181;28;20245;-80
2021/12/18 07:01:31;;;;;;;11.43;10.33;;;;;;;8.13;58.16;99972.81;8250855;28;20234;-80
2021/12/18 07:05:34;;;;;;;10.90;9.80;;;;;;;8.01;58.60;99985.72;8251050;28;20265;-80
2021/12/18 07:09:39;;;;;;;11.53;10.40;;;;;;;8.02;58.69;99984.88;8250817;28;20230;-80
2021/12/18 07:13:42;;;;;;;11.13;9.93;;;;;;;8.04;58.86;99985.72;8250876;28;20473;-79
2021/12/18 07:17:49;;;;;;;11.03;9.60;;;;;;;8.11;58.47;99989.13;8250692;28;20234;-79
2021/12/18 07:21:52;;;;;;;9.60;8.70;;;;;;;8.18;58.22;99986.53;8250619;28;20245;-78
2021/12/18 07:25:55;;;;;;;10.23;9.13;;;;;;;8.08;58.94;99999.47;8250498;28;20230;-79
2021/12/18 07:29:58;;;;;;;10.77;9.03;;;;;;;8.13;58.86;99997.72;8250279;28;20237;-79
2021/12/18 07:34:02;;;;;;;11.17;10.07;;;;;;;8.12;58.48;99994.31;8250320;28;20543;-78
2021/12/18 07:38:06;;;;;;;10.47;9.47;;;;;;;8.18;57.96;99996.00;8250266;28;20548;-79
2021/12/18 07:42:09;;;;;;;11.20;10.00;;;;;;;8.12;58.71;99993.44;8250197;28;20234;-78
2021/12/18 07:46:11;;;;;;;11.87;9.93;;;;;;;8.12;58.27;99990.88;8241821;28;20241;-77
2021/12/18 07:50:20;;;;;;;11.90;10.43;;;;;;;8.06;58.26;99999.47;8249806;28;20234;-80
2021/12/18 07:54:23;;;;;;;12.33;11.03;;;;;;;8.05;58.35;99989.16;8250320;28;20429;-78
2021/12/18 07:58:26;;;;;;;10.73;9.30;;;;;;;8.14;58.74;99981.41;8251766;28;20540;-77
2021/12/18 08:02:28;;;;;;;10.10;9.17;;;;;;;8.12;58.68;99986.56;8256683;28;20241;-78
2021/12/18 08:06:33;;;;;;;10.90;9.87;;;;;;;8.16;58.31;99988.25;8256173;28;20250;-77
2021/12/18 08:10:36;;;;;;;12.63;10.00;;;;;;;8.21;58.47;99980.53;8256937;28;20233;-78
2021/12/18 08:14:39;;;;;;;10.60;9.57;;;;;;;8.12;58.52;99983.13;8255147;28;20237;-78
2021/12/18 08:18:42;;;;;;;11.27;10.17;;;;;;;8.19;58.51;99982.25;8256102;28;20238;-77
2021/12/18 08:22:46;;;;;;;12.20;11.00;;;;;;;8.23;58.16;99989.97;8256176;28;20277;-79
2021/12/18 08:26:49;;;;;;;10.57;9.07;;;;;;;8.27;58.02;99983.09;8255820;28;20234;-74
2021/12/18 08:30:52;;;;;;;10.43;8.83;;;;;;;8.22;58.04;99992.56;8255975;28;20242;-74
2021/12/18 08:34:55;;;;;;;9.57;8.67;;;;;;;8.16;58.45;99993.44;8255400;28;20234;-74
2021/12/18 08:39:00;;;;;;;11.13;9.90;;;;;;;8.01;58.55;99993.47;8255112;28;20230;-75
2021/12/18 08:43:03;;;;;;;11.03;9.30;;;;;;;7.85;58.60;99990.06;8255416;28;20233;-74
2021/12/18 08:47:06;;;;;;;9.70;8.80;;;;;;;8.02;58.64;99990.88;8255144;28;20605;-75
2021/12/18 08:51:09;;;;;;;9.70;8.77;;;;;;;7.99;59.12;99993.47;8254711;28;20229;-74
2021/12/18 08:55:14;;;;;;;10.17;9.17;;;;;;;8.06;58.60;99993.47;8254521;28;20222;-75
2021/12/18 08:59:17;;;;;;;33.87;9.43;;;;;;;11.38;80.47;100001.06;8254739;28;20427;-71
2021/12/18 09:03:20;;;;;;;9.73;8.73;;;;;;;9.21;59.28;99990.44;8254428;28;20260;-74
2021/12/18 09:07:25;;;;;;;8.93;8.03;;;;;;;8.80;58.02;99983.78;8254318;28;20277;-74
2021/12/18 09:11:30;;;;;;;9.87;8.83;;;;;;;8.57;58.32;99989.91;8253261;28;20245;-75
2021/12/18 09:15:33;;;;;;;9.93;8.93;;;;;;;8.46;58.54;99989.09;8254221;28;20249;-74
2021/12/18 09:19:36;;;;;;;10.77;8.90;;;;;;;8.44;58.33;99985.66;8254281;28;20234;-75
2021/12/18 09:23:39;;;;;;;10.20;9.20;;;;;;;8.34;58.50;99992.53;8254233;28;20236;-75
2021/12/18 09:27:44;;;;;;;10.83;9.70;;;;;;;8.39;58.15;99980.44;8254137;28;20423;-74
2021/12/18 09:31:47;;;;;;;10.43;8.73;;;;;;;8.58;58.19;99981.28;8253780;28;20237;-74
2021/12/18 09:35:50;;;;;;;10.50;8.67;;;;;;;8.49;58.61;99976.19;8254181;28;20241;-75
2021/12/18 09:39:53;;;;;;;10.20;9.10;;;;;;;8.37;58.79;99968.44;8253892;28;20242;-74
2021/12/18 09:43:57;;;;;;;12.27;9.27;;;;;;;8.32;58.54;99963.28;8253796;28;20245;-74
2021/12/18 09:48:01;;;;;;;10.67;9.20;;;;;;;8.27;58.46;99967.59;8253783;28;20246;-74
2021/12/18 09:52:05;;;;;;;12.37;8.93;;;;;;;8.51;58.52;99970.97;8253572;28;20242;-75
2021/12/18 09:56:08;;;;;;;11.47;10.27;;;;;;;8.44;58.77;99966.72;8253467;28;20234;-74
2021/12/18 10:00:15;;;;;;;12.37;11.07;;;;;;;8.47;58.57;99957.22;8252927;28;20238;-75
2021/12/18 10:04:26;;;;;;;24.53;7.30;;;;;;;10.17;81.51;99970.63;8252697;28;20246;-71
2021/12/18 10:08:30;;;;;;;11.17;10.07;;;;;;;9.22;58.86;99973.22;8252562;28;20265;-75
2021/12/18 10:12:34;;;;;;;13.43;10.30;;;;;;;8.84;57.73;99963.97;8251878;28;20230;-75
2021/12/18 10:16:43;;;;;;;10.93;9.60;;;;;;;8.75;57.70;99957.09;8252115;28;20533;-75
2021/12/18 10:20:46;;;;;;;13.37;10.17;;;;;;;8.66;57.62;99957.16;8252102;28;20230;-75
2021/12/18 10:25:06;;;;;;;12.03;10.83;;;;;;;8.68;58.30;99958.00;8252237;28;20226;-75
2021/12/18 10:29:25;;;;;;;11.47;10.37;;;;;;;8.59;58.10;99949.44;8252181;28;20242;-75
2021/12/18 10:33:33;;;;;;;10.90;9.80;;;;;;;8.61;57.96;99932.19;8251842;28;20230;-75
2021/12/18 10:37:36;;;;;;;12.87;10.87;;;;;;;8.48;58.73;99938.28;8251890;28;20244;-75
2021/12/18 10:41:39;;;;;;;10.57;9.57;;;;;;;8.57;58.32;99927.94;8251703;28;20234;-74
2021/12/18 10:45:42;;;;;;;11.93;10.23;;;;;;;8.59;58.11;99922.75;8251550;28;20234;-75
2021/12/18 10:49:46;;;;;;;12.07;10.90;;;;;;;8.53;58.77;99915.91;8251742;28;20234;-74
2021/12/18 10:53:52;;;;;;;11.87;10.47;;;;;;;8.53;58.25;99927.94;8251518;28;20237;-74
2021/12/18 10:57:55;;;;;;;12.47;10.57;;;;;;;8.52;58.77;99932.25;8251245;28;20256;-73
2021/12/18 11:02:00;;;;;;;11.13;10.00;;;;;;;8.52;58.78;99928.81;8250899;28;20234;-75
2021/12/18 11:06:17;;;;;;;12.50;11.27;;;;;;;8.47;59.25;99922.81;8250744;28;20234;-74
2021/12/18 11:10:38;;;;;;;12.53;11.33;;;;;;;8.49;58.70;99918.47;8250795;28;20244;-75
2021/12/18 11:14:45;;;;;;;12.27;11.00;;;;;;;8.59;58.73;99907.25;8250583;28;20273;-76
2021/12/18 11:18:49;;;;;;;13.00;11.70;;;;;;;8.52;58.64;99898.69;8250694;28;20540;-77
2021/12/18 11:22:53;;;;;;;13.57;12.07;;;;;;;8.46;59.42;99893.53;8250944;28;20238;-77
2021/12/18 11:26:59;;;;;;;13.33;11.80;;;;;;;8.55;58.54;99885.75;8250580;28;20532;-76
2021/12/18 11:31:03;;;;;;;10.90;9.80;;;;;;;8.63;58.28;99880.53;8249273;28;20238;-76
2021/12/18 11:35:08;;;;;;;30.63;25.57;;;;;;;8.57;58.65;99867.69;8249731;28;20240;-77
2021/12/18 11:39:14;;;;;;;12.47;10.63;;;;;;;8.55;58.42;99854.75;8241971;28;20234;-76
2021/12/18 11:43:34;;;;;;;15.27;13.67;;;;;;;8.57;57.30;99845.28;8250262;28;20434;-76
2021/12/18 11:47:38;;;;;;;11.60;10.40;;;;;;;8.51;57.96;99852.19;8250176;28;20234;-76
2021/12/18 11:51:58;;;;;;;10.33;9.33;;;;;;;8.51;57.47;99842.75;8250003;28;20416;-76
2021/12/18 11:56:02;;;;;;;11.33;9.77;;;;;;;8.55;57.27;99841.00;8249883;28;20297;-76
2021/12/18 12:00:08;;;;;;;13.23;11.13;;;;;;;8.58;57.79;99831.47;8249711;28;20342;-76
2021/12/18 12:04:11;;;;;;;10.13;8.17;;;;;;;8.42;57.57;99824.72;8249639;28;20548;-76
2021/12/18 12:08:32;;;;;;;9.60;8.67;;;;;;;8.50;57.39;99830.69;8241643;28;20238;-76
2021/12/18 12:12:51;;;;;;;9.30;8.40;;;;;;;8.57;57.22;99821.19;8249753;28;20230;-76
2021/12/18 12:17:11;;;;;;;9.27;8.37;;;;;;;8.51;57.22;99824.66;8249303;28;20502;-76
2021/12/18 12:21:38;;;;;;;8.33;7.50;;;;;;;8.50;56.89;99828.09;8248950;28;20233;-76
2021/12/18 12:25:47;;;;;;;9.67;8.20;;;;;;;8.53;56.91;99834.97;8249653;28;20237;-76
2021/12/18 12:29:52;;;;;;;8.97;8.07;;;;;;;8.56;57.17;99835.81;8249353;28;20230;-76
2021/12/18 12:34:20;;;;;;;9.20;8.30;;;;;;;8.61;57.21;99828.91;8248488;28;20230;-76
2021/12/18 12:38:24;;;;;;;11.17;10.03;;;;;;;8.60;57.08;99832.38;8248349;28;20237;-76
2021/12/18 12:42:27;;;;;;;10.57;9.47;;;;;;;8.53;57.23;99825.53;8246157;28;20229;-75
2021/12/18 12:46:32;;;;;;;14.80;11.53;;;;;;;8.53;57.43;99824.63;8251599;28;20230;-76
2021/12/18 12:50:36;;;;;;;10.33;8.77;;;;;;;8.52;57.43;99816.03;8253813;28;20234;-76
2021/12/18 12:54:59;;;;;;;10.60;9.50;;;;;;;8.58;57.35;99815.16;8254006;28;20423;-76
2021/12/18 12:59:23;;;;;;;41.77;30.40;;;;;;;8.60;57.75;99813.41;8254383;28;20237;-80
2021/12/18 13:03:34;;;;;;;32.80;23.30;;;;;;;8.54;58.04;99809.13;8246033;28;20225;-80
2021/12/18 13:07:45;;;;;;;29.10;19.43;;;;;;;8.44;57.49;99807.50;8222433;28;20245;-79
2021/12/18 13:12:01;;;;;;;17.93;16.13;;;;;;;8.33;57.86;99812.69;8222686;28;20536;-80
2021/12/18 13:16:10;;;;;;;11.43;10.33;;;;;;;8.43;57.61;99810.09;8236173;28;20234;-80
2021/12/18 13:20:17;;;;;;;20.13;8.63;;;;;;;10.31;68.57;99812.53;8246251;28;20226;-73
2021/12/18 13:24:22;;;;;;;10.13;6.93;;;;;;;11.27;56.99;99798.94;8253442;28;20403;-74
2021/12/18 13:28:25;;;;;;;11.33;9.23;;;;;;;11.22;51.11;99798.16;8253953;28;20516;-77
2021/12/18 13:32:28;;;;;;;10.20;8.43;;;;;;;9.98;53.25;99793.13;8250629;28;20241;-77
2021/12/18 13:36:41;;;;;;;9.50;8.60;;;;;;;9.59;54.09;99787.53;8254162;28;20237;-78
2021/12/18 13:40:47;;;;;;;8.23;7.43;;;;;;;9.36;54.79;99786.03;8253640;28;20257;-79
2021/12/18 13:44:53;;;;;;;7.97;7.17;;;;;;;9.26;55.18;99781.84;8253534;28;20238;-76
2021/12/18 13:48:56;;;;;;;9.43;8.57;;;;;;;8.83;56.24;99777.06;8253776;28;20238;-76
2021/12/18 13:53:04;;;;;;;7.90;7.10;;;;;;;8.87;55.91;99783.94;8260327;28;20226;-75
2021/12/18 13:57:07;;;;;;;9.20;8.30;;;;;;;8.73;56.52;99781.44;8252916;28;20465;-75
2021/12/18 14:01:12;;;;;;;8.30;7.50;;;;;;;8.59;56.92;99783.31;8254000;28;20556;-73
2021/12/18 14:05:15;;;;;;;8.40;7.60;;;;;;;8.50;56.69;99778.19;8218488;28;20231;-75
2021/12/18 14:09:23;;;;;;;9.07;7.93;;;;;;;8.51;56.78;99778.19;8221511;28;20253;-75
2021/12/18 14:13:29;;;;;;;12.43;9.57;;;;;;;8.44;57.53;99767.91;8220171;28;20238;-74
2021/12/18 14:17:35;;;;;;;9.73;8.73;;;;;;;8.39;57.36;99768.75;8220822;29;20230;-75
2021/12/18 14:21:43;;;;;;;8.87;7.97;;;;;;;8.44;56.91;99778.25;8220374;28;20234;-75
2021/12/18 14:25:47;;;;;;;8.10;7.33;;;;;;;8.41;56.79;99779.06;8221181;28;20227;-75
2021/12/18 14:29:52;;;;;;;7.87;6.93;;;;;;;8.40;57.00;99774.78;8219152;28;20409;-75
2021/12/18 14:33:57;;;;;;;9.17;7.67;;;;;;;8.44;57.34;99773.94;8220235;29;20285;-75
2021/12/18 14:38:02;;;;;;;8.77;7.90;;;;;;;8.37;57.43;99774.78;8219987;29;20234;-75
2021/12/18 14:42:12;;;;;;;9.27;8.37;;;;;;;8.40;57.50;99773.06;8219626;29;20254;-77
2021/12/18 14:46:18;;;;;;;15.90;13.10;;;;;;;8.37;57.77;99767.91;8219014;29;20227;-75
2021/12/18 14:50:22;;;;;;;11.50;10.40;;;;;;;8.39;57.56;99775.66;8219133;28;20553;-74
2021/12/18 14:54:28;;;;;;;19.83;17.83;;;;;;;8.22;57.96;99774.03;8219398;29;20254;-74
2021/12/18 14:58:34;;;;;;;14.17;12.47;;;;;;;8.28;57.78;99778.31;8220392;28;20247;-75
2021/12/18 15:02:58;;;;;;;12.57;11.37;;;;;;;8.27;58.10;99775.72;8218895;28;20264;-75
2021/12/18 15:07:01;;;;;;;23.57;21.10;;;;;;;8.19;58.13;99774.06;8218681;28;20243;-75
2021/12/18 15:11:25;;;;;;;17.07;15.37;;;;;;;8.29;58.00;99771.41;8218843;29;20261;-75
2021/12/18 15:15:29;;;;;;;18.73;16.90;;;;;;;8.34;57.73;99770.53;8218757;28;20238;-75
2021/12/18 15:19:33;;;;;;;13.70;12.40;;;;;;;8.03;58.10;99762.09;8218652;29;20234;-75
2021/12/18 15:23:37;;;;;;;14.63;12.80;;;;;;;8.07;58.29;99763.78;8218849;29;20419;-75
2021/12/18 15:27:40;;;;;;;16.90;13.30;;;;;;;8.18;57.87;99756.84;8218441;29;20231;-75
2021/12/18 15:31:47;;;;;;;12.90;11.43;;;;;;;8.11;57.70;99752.59;8218292;29;20238;-75
2021/12/18 15:35:50;;;;;;;13.13;10.90;;;;;;;8.08;57.88;99756.91;8218566;29;20234;-75
2021/12/18 15:39:53;;;;;;;14.93;13.40;;;;;;;8.16;57.67;99745.66;8218373;29;20235;-75
2021/12/18 15:43:57;;;;;;;12.13;10.83;;;;;;;8.01;58.08;99738.03;8218281;29;20238;-75
2021/12/18 15:48:02;;;;;;;9.60;8.70;;;;;;;8.18;57.51;99735.34;8217759;28;20254;-75
2021/12/18 15:52:06;;;;;;;11.30;9.63;;;;;;;8.09;57.84;99725.06;8217691;29;20254;-75
2021/12/18 15:56:09;;;;;;;12.40;11.20;;;;;;;8.15;57.80;99718.16;8218398;29;20416;-75
2021/12/18 16:00:14;;;;;;;11.90;10.57;;;;;;;8.10;58.01;99726.81;8251050;28;20229;-75
2021/12/18 16:04:19;;;;;;;13.30;12.00;;;;;;;8.05;58.06;99719.06;8249224;28;20246;-75
2021/12/18 16:08:22;;;;;;;13.03;11.63;;;;;;;8.06;58.16;99715.63;8249465;28;20327;-75
2021/12/18 16:12:25;;;;;;;14.60;13.07;;;;;;;8.10;57.95;99722.50;8249510;28;20242;-75
2021/12/18 16:16:28;;;;;;;14.03;11.87;;;;;;;8.09;58.28;99715.63;8249389;28;20559;-74
2021/12/18 16:20:34;;;;;;;13.40;11.97;;;;;;;8.13;58.00;99721.59;8252674;28;20245;-75
2021/12/18 16:24:37;;;;;;;17.57;14.27;;;;;;;7.94;58.46;99726.00;8262710;28;20558;-75
2021/12/18 16:28:40;;;;;;;16.17;12.93;;;;;;;7.95;59.21;99728.59;8287998;28;20453;-75
2021/12/18 16:32:43;;;;;;;15.67;13.30;;;;;;;8.05;58.85;99721.66;8288094;28;20237;-74
2021/12/18 16:36:52;;;;;;;19.93;15.60;;;;;;;8.07;58.72;99726.81;8287769;28;20573;-77
2021/12/18 16:40:56;;;;;;;22.23;16.73;;;;;;;8.03;59.19;99729.44;8259984;28;20548;-75
2021/12/18 16:45:02;;;;;;;19.80;16.07;;;;;;;8.00;59.42;99734.59;8255689;28;20300;-74
2021/12/18 16:49:13;;;;;;;19.13;15.23;;;;;;;7.96;59.37;99737.22;8246676;28;20234;-78
2021/12/18 16:53:18;;;;;;;20.33;15.77;;;;;;;8.00;59.32;99726.84;8255003;28;20234;-75
2021/12/18 16:57:21;;;;;;;20.77;15.97;;;;;;;7.97;59.73;99729.44;8255324;28;20237;-75
2021/12/18 17:01:24;;;;;;;20.77;15.30;;;;;;;8.01;59.99;99736.31;8280704;28;20245;-76
2021/12/18 17:05:27;;;;;;;20.83;16.03;;;;;;;8.03;59.45;99729.44;8286574;28;20575;-76
2021/12/18 17:09:32;;;;;;;21.83;17.30;;;;;;;7.96;59.88;99729.47;8286539;28;20241;-76
2021/12/18 17:13:36;;;;;;;29.07;18.70;;;;;;;7.98;59.84;99725.16;8267743;28;20425;-76
2021/12/18 17:17:39;;;;;;;31.37;19.00;;;;;;;7.94;60.30;99720.84;8280757;28;20237;-76
2021/12/18 17:21:42;;;;;;;24.53;16.87;;;;;;;7.98;60.08;99717.41;8286459;28;20240;-76
2021/12/18 17:25:47;;;;;;;23.87;17.50;;;;;;;7.83;60.02;99711.47;8286441;28;20245;-77
2021/12/18 17:29:50;;;;;;;22.77;15.80;;;;;;;7.89;60.14;99717.47;8271753;28;20234;-78
2021/12/18 17:33:53;;;;;;;23.50;16.70;;;;;;;7.79;60.04;99716.66;8252825;28;20545;-77
2021/12/18 17:37:57;;;;;;;22.03;15.23;;;;;;;7.90;60.23;99701.09;8253405;28;20238;-76
2021/12/18 17:42:01;;;;;;;18.70;15.27;;;;;;;7.73;60.41;99702.06;8253512;28;20238;-76
2021/12/18 17:46:05;;;;;;;20.07;14.30;;;;;;;7.73;60.30;99702.06;8258179;28;20224;-76
2021/12/18 17:50:09;;;;;;;19.63;15.53;;;;;;;7.85;60.07;99701.16;8252547;28;20233;-68
2021/12/18 17:54:15;;;;;;;18.80;14.87;;;;;;;7.90;59.84;99683.03;8241342;28;20214;-78
2021/12/18 17:58:22;;;;;;;19.60;14.40;;;;;;;7.80;60.04;99692.56;8247492;28;20233;-76
2021/12/18 18:02:28;;;;;;;23.10;16.97;;;;;;;7.88;60.20;99688.25;8249164;28;20420;-76
2021/12/18 18:06:32;;;;;;;34.10;26.70;;;;;;;7.93;60.30;99689.03;8251702;28;20329;-76
2021/12/18 18:10:42;;;;;;;29.83;25.30;;;;;;;7.98;60.19;99679.56;8251432;28;20310;-75
2021/12/18 18:14:47;;;;;;;20.40;16.50;;;;;;;7.87;60.31;99673.63;8251496;28;20297;-76
2021/12/18 18:18:50;;;;;;;22.67;18.40;;;;;;;7.96;60.19;99660.66;8253179;28;20226;-76
2021/12/18 18:22:54;;;;;;;21.53;16.70;;;;;;;7.94;60.20;99662.41;8252084;28;20238;-76
2021/12/18 18:26:57;;;;;;;20.80;16.93;;;;;;;7.87;60.20;99658.13;8252008;28;20238;-76
2021/12/18 18:31:04;;;;;;;23.53;18.67;;;;;;;7.92;60.44;99653.81;8252465;28;20266;-76
2021/12/18 18:35:08;;;;;;;22.53;17.57;;;;;;;7.99;60.49;99654.63;8252665;28;20264;-75
2021/12/18 18:39:11;;;;;;;23.23;20.70;;;;;;;7.82;60.76;99649.56;8252412;28;20234;-76
2021/12/18 18:43:15;;;;;;;25.60;17.90;;;;;;;7.85;60.14;99653.88;8251195;28;20291;-75
2021/12/18 18:47:25;;;;;;;19.60;16.03;;;;;;;7.96;60.09;99650.34;8252339;28;20234;-75
2021/12/18 18:51:30;;;;;;;24.97;19.07;;;;;;;7.96;60.17;99649.50;8272645;28;20260;-76
2021/12/18 18:55:33;;;;;;;23.27;18.20;;;;;;;7.84;60.73;99658.16;8251571;28;20241;-74
2021/12/18 18:59:41;;;;;;;25.30;19.40;;;;;;;7.84;60.40;99652.97;8282704;28;20536;-74
2021/12/18 19:03:46;;;;;;;21.37;17.33;;;;;;;7.90;60.70;99658.13;8283276;28;20240;-75
2021/12/18 19:07:49;;;;;;;22.17;17.20;;;;;;;7.59;61.18;99666.00;8218522;28;20235;-76
2021/12/18 19:11:52;;;;;;;18.43;14.97;;;;;;;7.64;60.67;99658.28;8218850;28;20652;-76
2021/12/18 19:15:56;;;;;;;20.07;14.07;;;;;;;7.74;60.37;99662.50;8218969;28;20430;-76
2021/12/18 19:20:06;;;;;;;20.30;16.10;;;;;;;7.78;60.52;99653.88;8221081;28;20233;-75
2021/12/18 19:24:09;;;;;;;20.77;15.70;;;;;;;7.85;60.31;99659.03;8226781;28;20239;-77
2021/12/18 19:28:12;;;;;;;19.20;15.00;;;;;;;7.57;60.78;99664.31;8246480;28;20230;-76
2021/12/18 19:32:15;;;;;;;20.27;16.40;;;;;;;7.79;60.77;99657.34;8217557;28;20238;-76
2021/12/18 19:36:20;;;;;;;16.60;13.90;;;;;;;7.69;59.92;99655.66;8218796;28;20235;-76
2021/12/18 19:40:24;;;;;;;19.97;14.17;;;;;;;7.55;60.77;99661.75;8250565;28;20234;-76
2021/12/18 19:44:31;;;;;;;14.50;12.17;;;;;;;7.51;60.77;99661.78;8233804;28;21811;-75